Change the Weather History Date:

Saturday, May 17, 2014

  Actual Average Record
Temperature  
Mean Temperature 56 °F -  
Max Temperature 73 °F 75 °F 93 °F (2012)
Min Temperature 39 °F 48 °F 31 °F (1968)
Degree Days  
Heating Degree Days 9    
Growing Degree Days 6 (Base 50)    
Moisture  
Dew Point 28 °F    
Average Humidity 37    
Maximum Humidity 65    
Minimum Humidity 15    
Precipitation  
Precipitation 0.00 in - - ()
Sea Level Pressure  
Sea Level Pressure 30.03 in    
Wind  
Wind Speed 7 mph (WNW)    
Max Wind Speed 13 mph    
Max Gust Speed 18 mph    
Visibility 10 miles    
Events      
Averages and records for this station are not official NWS values.
T = Trace of Precipitation, MM = Missing Value Source: NWS Daily Summary

Daily Weather History Graph

Daily Weather History Graph

Search for Another Location

Airport or City:

Trip Planner

Search our weather history database for the weather conditions in past years. The results will help you decide how hot, cold, wet, or windy it might be!

Date:

Astronomy

May. 17, 2014 Rise Set
Actual Time 5:51 AM CDT 8:47 PM CDT
Civil Twilight 5:17 AM CDT 9:22 PM CDT
Nautical Twilight 4:33 AM CDT 10:06 PM CDT
Astronomical Twilight 3:41 AM CDT 10:58 PM CDT
Moon 11:47 PM CDT (5/17) 8:36 AM CDT (5/17)
Length of Visible Light 16h 04m
Length of Day
14h 55m
Waning Gibbous, 89% of the Moon is Illuminated
May 17
Waning Gibbous
May 21
Last Quarter
May 28
New
Jun 5
First Quarter
Jun 12
Full

Hourly Weather History & Observations

Time (CDT) Temp. Windchill Dew Point Humidity Pressure Visibility Wind Dir Wind Speed Gust Speed Precip Events Conditions
12:14 AM 44.6 °F 40.7 °F 26.6 °F 49% 30.08 in 10.0 mi WSW 6.9 mph - N/A   Scattered Clouds
12:34 AM 44.6 °F 40.2 °F 26.6 °F 49% 30.08 in 10.0 mi West 8.1 mph - N/A   Scattered Clouds
12:54 AM 44.6 °F 40.2 °F 26.6 °F 49% 30.08 in 10.0 mi West 8.1 mph - N/A   Scattered Clouds
1:14 AM 44.6 °F 40.2 °F 26.6 °F 49% 30.08 in 10.0 mi West 8.1 mph - N/A   Scattered Clouds
1:34 AM 44.6 °F 39.7 °F 26.6 °F 49% 30.08 in 10.0 mi West 9.2 mph - N/A   Clear
1:54 AM 42.8 °F 38.0 °F 26.6 °F 53% 30.08 in 10.0 mi West 8.1 mph - N/A   Clear
2:14 AM 42.8 °F 37.5 °F 26.6 °F 53% 30.08 in 10.0 mi West 9.2 mph - N/A   Clear
2:34 AM 42.8 °F 38.0 °F 26.6 °F 53% 30.08 in 10.0 mi West 8.1 mph - N/A   Clear
2:54 AM 42.8 °F 38.0 °F 26.6 °F 53% 30.07 in 10.0 mi West 8.1 mph - N/A   Clear
3:14 AM 41.0 °F 37.1 °F 26.6 °F 57% 30.08 in 10.0 mi West 5.8 mph - N/A   Scattered Clouds
3:34 AM 41.0 °F 35.8 °F 26.6 °F 57% 30.07 in 10.0 mi West 8.1 mph - N/A   Mostly Cloudy
3:54 AM 41.0 °F 35.8 °F 26.6 °F 57% 30.07 in 10.0 mi West 8.1 mph - N/A   Mostly Cloudy
4:14 AM 42.8 °F 38.0 °F 28.4 °F 57% 30.07 in 10.0 mi WSW 8.1 mph - N/A   Mostly Cloudy
4:34 AM 39.2 °F 33.6 °F 26.6 °F 61% 30.06 in 10.0 mi SW 8.1 mph - N/A   Scattered Clouds
4:54 AM 39.2 °F 34.2 °F 26.6 °F 61% 30.06 in 10.0 mi WSW 6.9 mph - N/A   Clear
5:14 AM 39.2 °F 35.0 °F 26.6 °F 61% 30.06 in 10.0 mi WSW 5.8 mph - N/A   Clear
5:34 AM 39.2 °F 34.2 °F 26.6 °F 61% 30.05 in 10.0 mi WSW 6.9 mph - N/A   Clear
5:54 AM 39.2 °F 34.2 °F 26.6 °F 61% 30.05 in 10.0 mi WSW 6.9 mph - N/A   Clear
6:14 AM 39.2 °F 34.2 °F 28.4 °F 65% 30.05 in 10.0 mi WSW 6.9 mph - N/A   Clear
6:34 AM 39.2 °F 35.0 °F 28.4 °F 65% 30.05 in 10.0 mi WSW 5.8 mph - N/A   Clear
6:54 AM 42.8 °F 39.3 °F 30.2 °F 61% 30.04 in 10.0 mi WSW 5.8 mph - N/A   Clear
7:14 AM 44.6 °F 40.7 °F 30.2 °F 57% 30.04 in 10.0 mi West 6.9 mph - N/A   Clear
7:34 AM 46.4 °F 42.4 °F 30.2 °F 53% 30.04 in 10.0 mi West 8.1 mph - N/A   Clear
7:54 AM 48.2 °F - 30.2 °F 50% 30.05 in 10.0 mi WNW 5.8 mph - N/A   Clear
8:14 AM 50.0 °F - 32.0 °F 50% 30.05 in 10.0 mi NNW 4.6 mph - N/A   Clear
8:34 AM 51.8 °F - 33.8 °F 50% 30.05 in 10.0 mi WNW 6.9 mph - N/A   Clear
8:54 AM 53.6 °F - 33.8 °F 47% 30.04 in 10.0 mi NW 6.9 mph - N/A   Clear
9:14 AM 55.4 °F - 35.6 °F 47% 30.04 in 10.0 mi NNW 6.9 mph - N/A   Clear
9:34 AM 57.2 °F - 35.6 °F 44% 30.05 in 10.0 mi NW 8.1 mph - N/A   Clear
9:54 AM 59.0 °F - 37.4 °F 45% 30.04 in 10.0 mi NNW 8.1 mph - N/A   Clear
10:14 AM 60.8 °F - 37.4 °F 42% 30.04 in 10.0 mi NNW 10.4 mph - N/A   Clear
10:34 AM 60.8 °F - 37.4 °F 42% 30.04 in 10.0 mi North 8.1 mph - N/A   Clear
10:54 AM 62.6 °F - 35.6 °F 37% 30.04 in 10.0 mi North 9.2 mph - N/A   Clear
11:14 AM 62.6 °F - 37.4 °F 39% 30.04 in 10.0 mi North 9.2 mph - N/A   Clear
11:34 AM 64.4 °F - 35.6 °F 34% 30.04 in 10.0 mi NNW 8.1 mph - N/A   Clear
11:54 AM 64.4 °F - 30.2 °F 28% 30.04 in 10.0 mi NNE 10.4 mph - N/A   Clear
12:14 PM 66.2 °F - 32.0 °F 28% 30.04 in 10.0 mi NNW 10.4 mph 16.1 mph N/A   Clear
12:34 PM 66.2 °F - 30.2 °F 26% 30.04 in 10.0 mi North 12.7 mph - N/A   Clear
12:54 PM 66.2 °F - 28.4 °F 24% 30.03 in 10.0 mi North 5.8 mph 11.5 mph N/A   Clear
1:14 PM 66.2 °F - 28.4 °F 24% 30.03 in 10.0 mi NE 3.5 mph 16.1 mph N/A   Clear
1:34 PM 68.0 °F - 26.6 °F 21% 30.03 in 10.0 mi NNW 6.9 mph 16.1 mph N/A   Clear
1:54 PM 69.8 °F - 24.8 °F 18% 30.02 in 10.0 mi NNE 4.6 mph - N/A   Clear
2:14 PM 69.8 °F - 21.2 °F 16% 30.02 in 10.0 mi ENE 4.6 mph - N/A   Clear
2:33 PM 69.8 °F - 21.2 °F 16% 30.02 in 10.0 mi North 8.1 mph - N/A   Clear
2:54 PM 71.6 °F - 21.2 °F 15% 30.01 in 10.0 mi NW 8.1 mph - N/A   Clear
3:14 PM 71.6 °F - 21.2 °F 15% 30.01 in 10.0 mi NNW 6.9 mph 18.4 mph N/A   Clear
3:33 PM 71.6 °F - 21.2 °F 15% 30.01 in 10.0 mi North 9.2 mph 16.1 mph N/A   Clear
3:54 PM 71.6 °F - 23.0 °F 16% 30.00 in 10.0 mi NNE 9.2 mph - N/A   Clear
4:14 PM 71.6 °F - 21.2 °F 15% 30.00 in 10.0 mi North 5.8 mph - N/A   Clear
4:33 PM 71.6 °F - 23.0 °F 16% 30.00 in 10.0 mi NNW 6.9 mph - N/A   Clear
4:54 PM 71.6 °F - 23.0 °F 16% 30.00 in 10.0 mi WNW 4.6 mph - N/A   Clear
5:14 PM 71.6 °F - 23.0 °F 16% 30.00 in 10.0 mi WNW 9.2 mph - N/A   Clear
5:34 PM 73.4 °F - 24.8 °F 16% 29.99 in 10.0 mi Calm Calm - N/A   Clear
5:54 PM 73.4 °F - 24.8 °F 16% 29.99 in 10.0 mi WNW 8.1 mph - N/A   Clear
6:14 PM 71.6 °F - 23.0 °F 16% 29.99 in 10.0 mi North 3.5 mph - N/A   Clear
6:34 PM 69.8 °F - 24.8 °F 18% 29.99 in 10.0 mi NNW 8.1 mph - N/A   Clear
6:54 PM 68.0 °F - 23.0 °F 18% 29.99 in 10.0 mi North 6.9 mph - N/A   Clear
7:14 PM 69.8 °F - 24.8 °F 18% 29.99 in 10.0 mi WNW 3.5 mph - N/A   Clear
7:34 PM 68.0 °F - 24.8 °F 20% 29.99 in 10.0 mi NNW 3.5 mph - N/A   Clear
7:54 PM 66.2 °F - 24.8 °F 21% 29.99 in 10.0 mi NNW 4.6 mph - N/A   Clear
8:14 PM 64.4 °F - 24.8 °F 22% 29.99 in 10.0 mi Calm Calm - N/A   Clear
8:34 PM 62.6 °F - 24.8 °F 24% 30.00 in 10.0 mi WSW 3.5 mph - N/A   Clear
8:54 PM 62.6 °F - 26.6 °F 26% 30.00 in 10.0 mi Calm Calm - N/A   Clear
9:14 PM 60.8 °F - 28.4 °F 29% 30.00 in 10.0 mi West 4.6 mph - N/A   Clear
9:34 PM 60.8 °F - 30.2 °F 31% 30.01 in 10.0 mi West 5.8 mph - N/A   Clear
9:54 PM 59.0 °F - 32.0 °F 36% 30.01 in 10.0 mi West 6.9 mph - N/A   Clear
10:14 PM 59.0 °F - 32.0 °F 36% 30.01 in 10.0 mi West 5.8 mph - N/A   Clear
10:34 PM 59.0 °F - 32.0 °F 36% 30.02 in 10.0 mi West 5.8 mph - N/A   Clear
10:54 PM 57.2 °F - 30.2 °F 36% 30.02 in 10.0 mi West 5.8 mph - N/A   Clear
11:14 PM 57.2 °F - 30.2 °F 36% 30.02 in 10.0 mi West 5.8 mph - N/A   Clear
11:34 PM 55.4 °F - 30.2 °F 38% 30.03 in 10.0 mi West 6.9 mph - N/A   Clear
11:54 PM 53.6 °F - 30.2 °F 41% 30.03 in 10.0 mi WSW 4.6 mph - N/A   Clear